Back to Top

Language: 

My Weather Underground Personal Weather Station Historical Data with Graphs...

Delerius Weather Station Historical Data
Daily Summary for February 15, 2017 Units:  Metric    English   Both
« Previous Day
Next Day »
Daily Weekly Monthly Yearly Custom
  High: Low: Average:
Temperature: 10.2 °C 7 °C 8.3 °C
Dew Point: 8.6 °C 4.9 °C 7.2 °C
Humidity: 96 % 85 % 92 %
Wind Speed: 17.7 km/h 0 km/h 5.8 km/h
Wind Gust: 25.7 km/h - -
Wind:- - SSW
Pressure: 1026.3 hPa 1023.6 hPa -
Precipitation: 0 mm    
Historical Graphs
 
 
Tabular Data for February 15, 2017
Time Temperature Dew Point Pressure Wind Wind Speed Wind Gust Humidity Rainfall Rate (Hourly) solar Conditions
00:00 7.1 °C 6.4 °C 1026 hPa ESE 3.2 km/h 3.2 km/h 95 % 0 mm 0 W/m2
00:05 7.1 °C 6.4 °C 1026 hPa ESE 3.2 km/h 3.2 km/h 95 % 0 mm 0 W/m2
00:15 7.2 °C 6.4 °C 1026 hPa ESE 1.6 km/h 3.2 km/h 95 % 0 mm 0 W/m2
00:20 7.2 °C 6.4 °C 1026 hPa Calm     95 % 0 mm 0 W/m2
00:25 7.2 °C 6.6 °C 1026 hPa Calm     96 % 0 mm 0 W/m2
00:30 7.2 °C 6.6 °C 1026 hPa Calm   1.6 km/h 96 % 0 mm 0 W/m2
00:40 7.2 °C 6.6 °C 1026 hPa East 1.6 km/h 1.6 km/h 96 % 0 mm 0 W/m2
00:45 7.2 °C 6.6 °C 1026 hPa East 1.6 km/h 3.2 km/h 96 % 0 mm 0 W/m2
00:50 7.2 °C 6.6 °C 1026 hPa East 1.6 km/h 1.6 km/h 96 % 0 mm 0 W/m2
01:05 7.2 °C 6.6 °C 1026 hPa Calm     96 % 0 mm 0 W/m2
01:10 7.2 °C 6.6 °C 1026 hPa Calm     96 % 0 mm 0 W/m2
01:15 7.2 °C 6.6 °C 1026 hPa Calm     96 % 0 mm 0 W/m2
01:20 7.2 °C 6.6 °C 1026 hPa Calm   1.6 km/h 96 % 0 mm 0 W/m2
01:25 7.2 °C 6.6 °C 1026 hPa ESE 1.6 km/h 1.6 km/h 96 % 0 mm 0 W/m2
01:35 7.3 °C 6.7 °C 1026 hPa Calm   1.6 km/h 96 % 0 mm 0 W/m2
01:40 7.3 °C 6.7 °C 1026 hPa Calm     96 % 0 mm 0 W/m2
01:45 7.3 °C 6.7 °C 1026 hPa Calm     96 % 0 mm 0 W/m2
01:50 7.3 °C 6.7 °C 1026.3 hPa Calm     96 % 0 mm 0 W/m2
02:00 7.3 °C 6.7 °C 1026.3 hPa Calm     96 % 0 mm 0 W/m2
02:05 7.3 °C 6.7 °C 1026.3 hPa Calm     96 % 0 mm 0 W/m2
02:10 7.3 °C 6.7 °C 1026 hPa Calm   1.6 km/h 96 % 0 mm 0 W/m2
02:15 7.3 °C 6.7 °C 1026 hPa ESE 1.6 km/h 8 km/h 96 % 0 mm 0 W/m2
02:20 7.3 °C 6.7 °C 1026.3 hPa South 4.8 km/h 4.8 km/h 96 % 0 mm 0 W/m2
02:30 7.4 °C 6.8 °C 1026.3 hPa SSE 4.8 km/h 4.8 km/h 96 % 0 mm 0 W/m2
02:35 7.3 °C 6.7 °C 1026.3 hPa SSE 4.8 km/h 4.8 km/h 96 % 0 mm 5 W/m2
02:40 7.3 °C 6.7 °C 1026.3 hPa SSE 1.6 km/h 1.6 km/h 96 % 0 mm 7 W/m2
02:45 7.3 °C 6.7 °C 1026 hPa SSE 1.6 km/h 3.2 km/h 96 % 0 mm 7 W/m2
02:50 7.3 °C 6.7 °C 1026 hPa SE 1.6 km/h 3.2 km/h 96 % 0 mm 11 W/m2
03:00 7.4 °C 6.8 °C 1026.3 hPa SE 1.6 km/h 3.2 km/h 96 % 0 mm 19 W/m2
03:05 7.4 °C 6.8 °C 1026.3 hPa SE 1.6 km/h 3.2 km/h 96 % 0 mm 18 W/m2
03:10 7.4 °C 6.8 °C 1026.3 hPa SE 3.2 km/h 3.2 km/h 96 % 0 mm 16 W/m2
03:20 7.4 °C 6.7 °C 1026.3 hPa SSW 1.6 km/h 1.6 km/h 95 % 0 mm 14 W/m2
03:25 7.4 °C 6.8 °C 1026.3 hPa SSE 1.6 km/h 1.6 km/h 96 % 0 mm 46 W/m2
03:30 7.5 °C 6.8 °C 1026.3 hPa SE 1.6 km/h 3.2 km/h 95 % 0 mm 109 W/m2
03:40 7.7 °C 6.9 °C 1026.3 hPa Calm     95 % 0 mm 70 W/m2
03:45 7.8 °C 7.1 °C 1026.3 hPa SE 1.6 km/h 1.6 km/h 95 % 0 mm 69 W/m2
03:50 7.9 °C 7.1 °C 1026.3 hPa SE 3.2 km/h 3.2 km/h 95 % 0 mm 83 W/m2
04:00 8 °C 7.1 °C 1026.3 hPa East 1.6 km/h 3.2 km/h 94 % 0 mm 88 W/m2
04:05 8.1 °C 7.2 °C 1026.3 hPa SE 3.2 km/h 4.8 km/h 94 % 0 mm 100 W/m2
04:10 8.1 °C 7.2 °C 1026.3 hPa SE 4.8 km/h 4.8 km/h 94 % 0 mm 98 W/m2
04:15 8.2 °C 7.3 °C 1026.3 hPa SE 4.8 km/h 6.4 km/h 94 % 0 mm 162 W/m2
04:20 8.4 °C 7.5 °C 1026.3 hPa SE 4.8 km/h 6.4 km/h 94 % 0 mm 216 W/m2
04:30 8.8 °C 7.6 °C 1026.3 hPa SSE 6.4 km/h 9.7 km/h 92 % 0 mm 258 W/m2
04:35 8.9 °C 7.7 °C 1026.3 hPa SE 8 km/h 12.9 km/h 92 % 0 mm 237 W/m2
04:40 9 °C 7.8 °C 1026.3 hPa SE 9.7 km/h 9.7 km/h 92 % 0 mm 274 W/m2
04:45 9.1 °C 7.7 °C 1026.3 hPa SSE 8 km/h 12.9 km/h 91 % 0 mm 288 W/m2
04:55 9.3 °C 7.8 °C 1026.3 hPa SSE 9.7 km/h 12.9 km/h 90 % 0 mm 278 W/m2
05:00 9.5 °C 7.9 °C 1026.3 hPa SE 9.7 km/h 14.5 km/h 90 % 0 mm 279 W/m2
05:05 9.5 °C 7.9 °C 1026.3 hPa SE 9.7 km/h 14.5 km/h 90 % 0 mm 325 W/m2
05:15 9.6 °C 8.1 °C 1026.3 hPa SE 9.7 km/h 12.9 km/h 90 % 0 mm 265 W/m2
05:20 9.7 °C 8.1 °C 1026.3 hPa SSE 9.7 km/h 9.7 km/h 90 % 0 mm 287 W/m2
05:25 9.8 °C 8.1 °C 1026.3 hPa SSE 11.3 km/h 12.9 km/h 89 % 0 mm 322 W/m2
05:30 9.9 °C 8.2 °C 1026.3 hPa SSE 12.9 km/h 16.1 km/h 89 % 0 mm 388 W/m2
05:40 10.2 °C 8.3 °C 1026.3 hPa South 11.3 km/h 11.3 km/h 88 % 0 mm 285 W/m2
05:45 10.1 °C 8.2 °C 1026.3 hPa SSE 11.3 km/h 11.3 km/h 88 % 0 mm 169 W/m2
05:50 9.9 °C 8.1 °C 1026.3 hPa SE 11.3 km/h 12.9 km/h 88 % 0 mm 338 W/m2
06:00 9.8 °C 8.1 °C 1026.3 hPa SE 12.9 km/h 12.9 km/h 89 % 0 mm 315 W/m2
06:05 9.7 °C 7.9 °C 1026.3 hPa South 11.3 km/h 12.9 km/h 89 % 0 mm 244 W/m2
06:10 9.6 °C 7.8 °C 1026.3 hPa South 11.3 km/h 12.9 km/h 89 % 0 mm 209 W/m2
06:15 9.3 °C 7.6 °C 1026.3 hPa SSE 11.3 km/h 12.9 km/h 89 % 0 mm 132 W/m2
06:25 8.8 °C 7.3 °C 1026.3 hPa SSE 11.3 km/h 11.3 km/h 90 % 0 mm 100 W/m2
06:30 8.7 °C 7.3 °C 1026.3 hPa SE 9.7 km/h 14.5 km/h 91 % 0 mm 95 W/m2
06:35 8.6 °C 7.2 °C 1026 hPa South 11.3 km/h 14.5 km/h 91 % 0 mm 120 W/m2
06:45 8.4 °C 7.2 °C 1026 hPa SSW 11.3 km/h 11.3 km/h 92 % 0 mm 63 W/m2
06:50 8.3 °C 7.1 °C 1026 hPa SSW 11.3 km/h 11.3 km/h 92 % 0 mm 91 W/m2
06:55 8.3 °C 7.3 °C 1026 hPa South 8 km/h 11.3 km/h 93 % 0 mm 107 W/m2
07:00 8.3 °C 7.2 °C 1025.6 hPa South 9.7 km/h 9.7 km/h 93 % 0 mm 100 W/m2
07:05 8.3 °C 7.2 °C 1025.6 hPa SSW 11.3 km/h 12.9 km/h 93 % 0 mm 120 W/m2
07:15 8.4 °C 7.5 °C 1025.6 hPa SSW 8 km/h 11.3 km/h 94 % 0 mm 97 W/m2
07:20 8.4 °C 7.5 °C 1025.6 hPa SSE 8 km/h 12.9 km/h 94 % 0 mm 120 W/m2
07:25 8.4 °C 7.6 °C 1025.6 hPa South 9.7 km/h 17.7 km/h 94 % 0 mm 51 W/m2
07:35 8.5 °C 7.4 °C 1025.3 hPa SSW 11.3 km/h 11.3 km/h 93 % 0 mm 114 W/m2
07:40 8.6 °C 7.6 °C 1025.3 hPa South 11.3 km/h 20.9 km/h 93 % 0 mm 105 W/m2
07:45 8.7 °C 7.6 °C 1025.3 hPa South 9.7 km/h 20.9 km/h 93 % 0 mm 153 W/m2
07:50 8.7 °C 7.7 °C 1025.3 hPa SSW 12.9 km/h 12.9 km/h 93 % 0 mm 118 W/m2
08:00 9.1 °C 8 °C 1024.9 hPa South 8 km/h 11.3 km/h 93 % 0 mm 156 W/m2
08:10 9.1 °C 7.9 °C 1024.9 hPa SSE 12.9 km/h 12.9 km/h 92 % 0 mm 123 W/m2
08:15 9.2 °C 7.9 °C 1024.9 hPa South 11.3 km/h 12.9 km/h 92 % 0 mm 134 W/m2
08:20 9.2 °C 7.8 °C 1024.9 hPa SSE 9.7 km/h 9.7 km/h 91 % 0 mm 109 W/m2
08:30 9.3 °C 8.1 °C 1024.6 hPa South 9.7 km/h 12.9 km/h 92 % 0 mm 197 W/m2
08:35 9.4 °C 8.2 °C 1024.9 hPa South 9.7 km/h 12.9 km/h 92 % 0 mm 218 W/m2
08:50 9.5 °C 8.1 °C 1024.6 hPa SW 12.9 km/h 12.9 km/h 91 % 0 mm 113 W/m2
08:55 9.5 °C 8.1 °C 1024.6 hPa South 12.9 km/h 12.9 km/h 91 % 0 mm 137 W/m2
09:05 9.7 °C 8.3 °C 1024.6 hPa SSE 9.7 km/h 11.3 km/h 91 % 0 mm 109 W/m2
09:15 9.7 °C 8.3 °C 1024.6 hPa SSE 11.3 km/h 16.1 km/h 91 % 0 mm 200 W/m2
09:20 9.7 °C 8.3 °C 1024.3 hPa South 11.3 km/h 11.3 km/h 91 % 0 mm 178 W/m2
09:30 9.8 °C 8.4 °C 1024.6 hPa SSW 9.7 km/h 14.5 km/h 91 % 0 mm 83 W/m2
09:35 9.8 °C 8.4 °C 1024.6 hPa South 12.9 km/h 14.5 km/h 91 % 0 mm 88 W/m2
09:40 9.8 °C 8.4 °C 1024.3 hPa SSW 11.3 km/h 11.3 km/h 91 % 0 mm 95 W/m2
09:50 9.8 °C 8.4 °C 1024.3 hPa South 12.9 km/h 16.1 km/h 91 % 0 mm 144 W/m2
09:55 9.9 °C 8.5 °C 1024.3 hPa South 11.3 km/h 16.1 km/h 91 % 0 mm 121 W/m2
10:00 9.9 °C 8.5 °C 1024.3 hPa South 11.3 km/h 11.3 km/h 91 % 0 mm 100 W/m2
10:05 9.9 °C 8.5 °C 1024.3 hPa South 11.3 km/h 12.9 km/h 91 % 0 mm 77 W/m2
10:10 9.9 °C 8.5 °C 1024.3 hPa South 9.7 km/h 9.7 km/h 91 % 0 mm 104 W/m2
10:20 9.9 °C 8.5 °C 1024.3 hPa SW 9.7 km/h 9.7 km/h 91 % 0 mm 39 W/m2
10:25 9.9 °C 8.5 °C 1023.9 hPa South 8 km/h 9.7 km/h 91 % 0 mm 37 W/m2
10:30 9.9 °C 8.5 °C 1023.9 hPa SSE 4.8 km/h 6.4 km/h 91 % 0 mm 53 W/m2
10:40 9.8 °C 8.6 °C 1023.9 hPa South 6.4 km/h 8 km/h 92 % 0 mm 44 W/m2
10:45 9.8 °C 8.6 °C 1023.9 hPa SSE 6.4 km/h 8 km/h 92 % 0 mm 30 W/m2
10:50 9.7 °C 8.5 °C 1023.9 hPa SSW 4.8 km/h 8 km/h 92 % 0 mm 21 W/m2
11:00 9.7 °C 8.6 °C 1023.9 hPa SSW 3.2 km/h 6.4 km/h 93 % 0 mm 11 W/m2
11:05 9.6 °C 8.6 °C 1023.6 hPa SSW 3.2 km/h 6.4 km/h 93 % 0 mm 9 W/m2
11:10 9.6 °C 8.5 °C 1023.6 hPa SSW 3.2 km/h 3.2 km/h 93 % 0 mm 9 W/m2
11:20 9.5 °C 8.4 °C 1023.6 hPa Calm     93 % 0 mm 9 W/m2
11:25 9.5 °C 8.4 °C 1023.6 hPa Calm     93 % 0 mm 7 W/m2
11:30 9.5 °C 8.6 °C 1023.6 hPa Calm     94 % 0 mm 7 W/m2
11:40 9.4 °C 8.5 °C 1023.6 hPa Calm     94 % 1.02 mm 5 W/m2
11:45 9.4 °C 8.5 °C 1023.6 hPa Calm     94 % 1.02 mm 5 W/m2
11:50 9.4 °C 8.5 °C 1023.6 hPa Calm     94 % 1.02 mm 0 W/m2
12:00 9.3 °C 8.4 °C 1023.6 hPa Calm     94 % 1.02 mm 0 W/m2
12:10 9.3 °C 8.4 °C 1023.6 hPa Calm     94 % 1.52 mm 0 W/m2
12:15 9.2 °C 8.3 °C 1023.6 hPa Calm     94 % 1.27 mm 0 W/m2
12:25 9.1 °C 8.2 °C 1023.6 hPa Calm     94 % 1.27 mm 0 W/m2
12:30 9.1 °C 8.3 °C 1023.9 hPa Calm     95 % 1.02 mm 0 W/m2
12:40 9 °C 8.2 °C 1023.9 hPa Calm     95 % 0 mm 0 W/m2
12:45 9 °C 8.2 °C 1023.9 hPa Calm     95 % 0 mm 0 W/m2
12:50 8.9 °C 8.1 °C 1023.9 hPa Calm     95 % 0 mm 0 W/m2
12:55 8.9 °C 8.1 °C 1023.9 hPa Calm     95 % 0 mm 0 W/m2
13:05 8.8 °C 8.1 °C 1023.9 hPa Calm     95 % 0 mm 0 W/m2
13:10 8.8 °C 8.1 °C 1023.9 hPa Calm     95 % 0 mm 0 W/m2
13:15 8.8 °C 8.2 °C 1023.9 hPa Calm     96 % 0 mm 0 W/m2
13:25 8.8 °C 8 °C 1023.6 hPa Calm     95 % 0 mm 0 W/m2
13:30 8.7 °C 7.9 °C 1023.6 hPa Calm     95 % 0 mm 0 W/m2
13:35 8.7 °C 7.9 °C 1023.9 hPa Calm     95 % 0 mm 0 W/m2
13:45 8.6 °C 7.9 °C 1023.9 hPa WSW 1.6 km/h 3.2 km/h 96 % 0 mm 0 W/m2
13:50 8.5 °C 7.7 °C 1023.6 hPa WSW 1.6 km/h 1.6 km/h 95 % 0 mm 0 W/m2
13:55 8.4 °C 7.8 °C 1023.6 hPa Calm   1.6 km/h 96 % 0 mm 0 W/m2
14:00 8.4 °C 7.8 °C 1023.6 hPa Calm     96 % 0 mm 0 W/m2
14:10 8.3 °C 7.7 °C 1023.6 hPa Calm     96 % 0 mm 0 W/m2
14:15 8.3 °C 7.7 °C 1023.6 hPa Calm     96 % 0 mm 0 W/m2
14:25 8.2 °C 7.6 °C 1023.6 hPa Calm     96 % 0 mm 0 W/m2
14:30 8.1 °C 7.5 °C 1023.6 hPa Calm     96 % 0 mm 0 W/m2
14:35 8.1 °C 7.5 °C 1023.6 hPa WSW 1.6 km/h 8 km/h 96 % 0 mm 0 W/m2
14:40 8.1 °C 7.5 °C 1023.6 hPa WSW 1.6 km/h 3.2 km/h 96 % 0 mm 0 W/m2
14:50 8 °C 7.4 °C 1023.9 hPa West 3.2 km/h 3.2 km/h 96 % 0 mm 0 W/m2
14:55 8 °C 7.4 °C 1023.9 hPa West 1.6 km/h 3.2 km/h 96 % 0 mm 0 W/m2
15:05 7.9 °C 7.3 °C 1023.9 hPa Calm     96 % 0 mm 0 W/m2
15:10 7.9 °C 7.3 °C 1023.9 hPa Calm     96 % 0 mm 0 W/m2
15:15 7.9 °C 7.3 °C 1023.9 hPa Calm     96 % 0 mm 0 W/m2
15:20 7.9 °C 7.3 °C 1023.9 hPa Calm   1.6 km/h 96 % 0 mm 0 W/m2
15:30 7.9 °C 7.3 °C 1023.9 hPa SSW 1.6 km/h 1.6 km/h 96 % 0 mm 0 W/m2
15:35 7.9 °C 7.3 °C 1023.9 hPa SSW 1.6 km/h 3.2 km/h 96 % 0 mm 0 W/m2
15:40 7.9 °C 7.3 °C 1023.9 hPa SSW 1.6 km/h 1.6 km/h 96 % 0 mm 0 W/m2
15:45 7.9 °C 7.3 °C 1023.9 hPa SW 1.6 km/h 1.6 km/h 96 % 0 mm 0 W/m2
15:55 7.8 °C 7.2 °C 1024.3 hPa SW 4.8 km/h 8 km/h 96 % 0 mm 0 W/m2
16:00 7.9 °C 7.1 °C 1024.3 hPa SW 3.2 km/h 3.2 km/h 95 % 0 mm 0 W/m2
16:05 7.9 °C 7.1 °C 1024.3 hPa SW 1.6 km/h 8 km/h 95 % 0 mm 0 W/m2
16:10 7.9 °C 7.1 °C 1024.3 hPa Calm     95 % 0 mm 0 W/m2
16:20 7.9 °C 7.1 °C 1024.3 hPa Calm     95 % 0 mm 0 W/m2
16:25 7.9 °C 7.1 °C 1024.3 hPa WSW 1.6 km/h 1.6 km/h 95 % 0 mm 0 W/m2
16:30 7.9 °C 7.1 °C 1024.3 hPa WSW 1.6 km/h 1.6 km/h 95 % 0 mm 0 W/m2
16:35 7.9 °C 7 °C 1024.3 hPa WSW 1.6 km/h 6.4 km/h 94 % 0 mm 0 W/m2
16:45 7.9 °C 7.1 °C 1024.3 hPa SW 4.8 km/h 4.8 km/h 94 % 0 mm 0 W/m2
16:50 7.9 °C 7 °C 1024.3 hPa SW 4.8 km/h 4.8 km/h 94 % 0 mm 0 W/m2
16:55 7.9 °C 7 °C 1024.3 hPa WSW 3.2 km/h 4.8 km/h 94 % 0 mm 0 W/m2
17:00 7.8 °C 6.9 °C 1024.3 hPa WSW 3.2 km/h 3.2 km/h 94 % 0 mm 0 W/m2
17:10 7.8 °C 6.8 °C 1024.3 hPa West 6.4 km/h 6.4 km/h 93 % 0 mm 0 W/m2
17:15 7.8 °C 6.8 °C 1024.3 hPa WSW 8 km/h 8 km/h 93 % 0 mm 0 W/m2
17:20 7.9 °C 6.8 °C 1024.3 hPa WSW 9.7 km/h 9.7 km/h 93 % 0 mm 0 W/m2
17:25 8.1 °C 7 °C 1024.3 hPa WSW 11.3 km/h 11.3 km/h 93 % 0 mm 0 W/m2
17:30 8.3 °C 7.1 °C 1024.3 hPa WSW 12.9 km/h 12.9 km/h 92 % 0 mm 0 W/m2
17:40 8.3 °C 7.1 °C 1024.3 hPa West 9.7 km/h 11.3 km/h 92 % 0 mm 0 W/m2
17:45 8.3 °C 7.1 °C 1024.3 hPa WSW 11.3 km/h 11.3 km/h 92 % 0 mm 0 W/m2
17:50 8.3 °C 6.9 °C 1024.3 hPa WSW 11.3 km/h 11.3 km/h 91 % 0 mm 0 W/m2
17:55 8.3 °C 6.9 °C 1024.3 hPa WSW 11.3 km/h 14.5 km/h 91 % 0 mm 0 W/m2
18:05 8.4 °C 7.1 °C 1024.3 hPa WSW 11.3 km/h 17.7 km/h 91 % 0 mm 0 W/m2
18:10 8.4 °C 6.8 °C 1024.3 hPa West 8 km/h 20.9 km/h 90 % 0 mm 0 W/m2
18:15 8.4 °C 6.8 °C 1024.6 hPa SW 6.4 km/h 20.9 km/h 90 % 0 mm 0 W/m2
18:20 8.3 °C 6.8 °C 1024.6 hPa SW 8 km/h 8 km/h 90 % 0 mm 0 W/m2
18:30 8.2 °C 6.8 °C 1024.6 hPa SW 4.8 km/h 8 km/h 91 % 0 mm 0 W/m2
18:35 8.1 °C 6.7 °C 1024.6 hPa SW 4.8 km/h 8 km/h 91 % 0 mm 0 W/m2
18:40 8.1 °C 6.7 °C 1024.6 hPa SSW 6.4 km/h 9.7 km/h 91 % 0 mm 0 W/m2
18:45 8.1 °C 6.7 °C 1024.6 hPa SSW 8 km/h 9.7 km/h 91 % 0 mm 0 W/m2
18:50 8.1 °C 6.7 °C 1024.6 hPa SSW 8 km/h 8 km/h 91 % 0 mm 0 W/m2
18:55 8.1 °C 6.7 °C 1024.6 hPa SSW 8 km/h 9.7 km/h 91 % 0 mm 0 W/m2
19:05 8.3 °C 6.7 °C 1024.6 hPa SW 8 km/h 19.3 km/h 90 % 0 mm 0 W/m2
19:15 8.4 °C 6.7 °C 1024.6 hPa SW 14.5 km/h 14.5 km/h 89 % 0 mm 0 W/m2
19:25 8.6 °C 6.6 °C 1024.6 hPa West 16.1 km/h 19.3 km/h 87 % 0 mm 0 W/m2
19:30 8.6 °C 6.6 °C 1024.6 hPa WSW 16.1 km/h 22.5 km/h 87 % 0 mm 0 W/m2
19:40 8.7 °C 6.6 °C 1024.6 hPa WSW 17.7 km/h 17.7 km/h 87 % 0 mm 0 W/m2
19:45 8.6 °C 6.6 °C 1024.6 hPa WSW 12.9 km/h 17.7 km/h 87 % 0 mm 0 W/m2
19:55 8.5 °C 6.6 °C 1024.6 hPa West 12.9 km/h 25.7 km/h 88 % 0 mm 0 W/m2
20:00 8.6 °C 6.7 °C 1024.6 hPa West 16.1 km/h 16.1 km/h 88 % 0 mm 0 W/m2
20:05 8.6 °C 6.5 °C 1024.6 hPa WSW 16.1 km/h 19.3 km/h 87 % 0 mm 0 W/m2
20:15 8.5 °C 6.4 °C 1024.9 hPa WSW 14.5 km/h 20.9 km/h 87 % 0 mm 0 W/m2
20:20 8.5 °C 6.4 °C 1024.9 hPa West 14.5 km/h 19.3 km/h 87 % 0 mm 0 W/m2
20:25 8.4 °C 6.5 °C 1024.9 hPa West 12.9 km/h 22.5 km/h 88 % 0 mm 0 W/m2
20:35 8.3 °C 6.4 °C 1024.6 hPa West 14.5 km/h 19.3 km/h 88 % 0 mm 0 W/m2
20:40 8.3 °C 6.4 °C 1024.9 hPa West 14.5 km/h 19.3 km/h 88 % 0 mm 0 W/m2
20:50 8.3 °C 6.3 °C 1024.9 hPa WSW 14.5 km/h 19.3 km/h 87 % 0 mm 0 W/m2
20:55 8.3 °C 6.3 °C 1024.9 hPa WSW 12.9 km/h 19.3 km/h 87 % 0 mm 0 W/m2
21:05 8.3 °C 6.1 °C 1024.9 hPa WNW 12.9 km/h 19.3 km/h 86 % 0 mm 0 W/m2
21:10 8.2 °C 6 °C 1024.9 hPa SW 12.9 km/h 12.9 km/h 86 % 0 mm 0 W/m2
21:15 8.2 °C 6 °C 1024.9 hPa WNW 11.3 km/h 19.3 km/h 86 % 0 mm 0 W/m2
21:20 8.1 °C 5.9 °C 1024.9 hPa WNW 8 km/h 19.3 km/h 86 % 0 mm 0 W/m2
21:35 7.9 °C 5.6 °C 1024.9 hPa West 6.4 km/h 19.3 km/h 85 % 0 mm 0 W/m2
21:40 7.9 °C 5.7 °C 1025.3 hPa West 4.8 km/h 4.8 km/h 86 % 0 mm 0 W/m2
21:45 7.8 °C 5.6 °C 1024.9 hPa West 4.8 km/h 19.3 km/h 86 % 0 mm 0 W/m2
21:55 7.7 °C 5.5 °C 1024.9 hPa West 4.8 km/h 19.3 km/h 86 % 0 mm 0 W/m2
22:00 7.7 °C 5.5 °C 1024.9 hPa WSW 4.8 km/h 4.8 km/h 86 % 0 mm 0 W/m2
22:05 7.6 °C 5.4 °C 1024.9 hPa West 1.6 km/h 19.3 km/h 86 % 0 mm 0 W/m2
22:15 7.3 °C 5.3 °C 1024.9 hPa Calm   19.3 km/h 87 % 0 mm 0 W/m2
22:20 7.2 °C 5.2 °C 1024.9 hPa Calm   19.3 km/h 87 % 0 mm 0 W/m2
22:25 7.1 °C 5.3 °C 1024.9 hPa Calm   19.3 km/h 88 % 0 mm 0 W/m2
22:30 7 °C 5.2 °C 1024.9 hPa West 1.6 km/h 19.3 km/h 88 % 0 mm 0 W/m2
22:35 7 °C 5.2 °C 1024.9 hPa West 3.2 km/h 19.3 km/h 88 % 0 mm 0 W/m2
22:45 7 °C 5.2 °C 1024.9 hPa SW 4.8 km/h 19.3 km/h 88 % 0 mm 0 W/m2
22:50 7.1 °C 5.3 °C 1024.9 hPa SW 8 km/h 8 km/h 88 % 0 mm 0 W/m2
23:00 7.3 °C 5.2 °C 1025.3 hPa SSW 8 km/h 8 km/h 86 % 0 mm 0 W/m2
23:10 7.4 °C 5.1 °C 1024.9 hPa SW 6.4 km/h 6.4 km/h 85 % 0 mm 0 W/m2
23:15 7.4 °C 5.1 °C 1025.3 hPa SW 4.8 km/h 19.3 km/h 85 % 0 mm 0 W/m2
23:20 7.3 °C 5 °C 1025.3 hPa SSW 3.2 km/h 3.2 km/h 85 % 0 mm 0 W/m2
23:30 7.2 °C 5 °C 1025.3 hPa SSW 1.6 km/h 19.3 km/h 86 % 0 mm 0 W/m2
23:35 7.1 °C 4.9 °C 1024.9 hPa WSW 4.8 km/h 19.3 km/h 86 % 0 mm 0 W/m2
23:40 7.1 °C 4.9 °C 1024.9 hPa WSW 4.8 km/h 19.3 km/h 86 % 0 mm 0 W/m2
23:45 7.1 °C 4.9 °C 1025.3 hPa WSW 6.4 km/h 19.3 km/h 86 % 0 mm 0 W/m2
23:55 7.1 °C 4.9 °C 1025.3 hPa WSW 11.3 km/h 19.3 km/h 86 % 0 mm 0 W/m2
Delerius-Weather
Compliments of Weather Underground - 2 mb

Data updates at regular intervals.